This is the latest recevied weather packets stored in our database for station/object IU5JAE-13. If no packets are shown the sender has not sent any weather packets the latest 10 day(s).
| Time | Temp. | Humidity | Pressure | Rain* | Wind** | Luminosity | Snow |
|---|---|---|---|---|---|---|---|
| 1777797324 | 17.78° C | 59% | 1020 hPa | 0 mm | - | 521 W/m² | - |
| 1777796722 | 18.33° C | 58% | 1019.9 hPa | 0 mm | - | 412 W/m² | - |
| 1777796120 | 17.22° C | 60% | 1020.1 hPa | 0 mm | - | 488 W/m² | - |
| 1777795517 | 16.11° C | 62% | 1020 hPa | 0 mm | - | 321 W/m² | - |
| 1777794935 | 16.67° C | 62% | 1020 hPa | 0 mm | - | 491 W/m² | - |
| 1777794332 | 15.56° C | 64% | 1020 hPa | 0 mm | - | 365 W/m² | - |
| 1777793730 | 16.11° C | 62% | 1020 hPa | 0 mm | - | 378 W/m² | - |
| 1777793128 | 15° C | 64% | 1020.2 hPa | 0 mm | - | 332 W/m² | - |
| 1777792525 | 15.56° C | 63% | 1020 hPa | 0 mm | - | 330 W/m² | - |
| 1777791923 | 15.56° C | 64% | 1020.1 hPa | 0 mm | - | 352 W/m² | - |
| 1777791320 | 15.56° C | 62% | 1020.2 hPa | 0 mm | - | 321 W/m² | - |
| 1777790718 | 14.44° C | 65% | 1020.2 hPa | 0 mm | - | 265 W/m² | - |
| 1777790116 | 15° C | 65% | 1020.1 hPa | 0 mm | - | 222 W/m² | - |
| 1777789533 | 14.44° C | 66% | 1020.2 hPa | 0 mm | - | 194 W/m² | - |
| 1777788931 | 15° C | 62% | 1020.1 hPa | 0 mm | - | 137 W/m² | - |
| 1777788328 | 13.89° C | 66% | 1020.1 hPa | 0 mm | - | 119 W/m² | - |
| 1777787726 | 13.89° C | 68% | 1020.2 hPa | 0 mm | - | 105 W/m² | - |
| 1777787124 | 15° C | 64% | 1020.1 hPa | 0 mm | - | 81 W/m² | - |
| 1777786521 | 15.56° C | 61% | 1020 hPa | 0 mm | - | 73 W/m² | - |
| 1777785919 | 13.89° C | 66% | 1020.1 hPa | 0 mm | - | 62 W/m² | - |
| 1777785316 | 13.33° C | 67% | 1020.1 hPa | 0 mm | - | 53 W/m² | - |
| 1777784734 | 12.22° C | 69% | 1020.1 hPa | 0 mm | - | 40 W/m² | - |
| 1777784132 | 11.11° C | 73% | 1020 hPa | 0 mm | - | 32 W/m² | - |
| 1777783529 | 10.56° C | 74% | 1019.9 hPa | 0 mm | - | 19 W/m² | - |
| 1777782927 | 10° C | 76% | 1020.1 hPa | 0 mm | - | 14 W/m² | - |
* Rain latest hour (hover to see other rain measurements)
** Current wind speed in m/s (hover to see current wind gust speed)